TimePST,TemperatureF,Dew PointF,Humidity,Sea Level PressureIn,VisibilityMPH,Wind Direction,Wind SpeedMPH,Gust SpeedMPH,PrecipitationIn,Events,Conditions,WindDirDegrees,DateUTC
12:00 AM,35.6,30.2,81,30.24,10.0,Calm,Calm,-,N/A,,Overcast,0,2013-01-07 08:00:00
12:53 AM,34.0,30.0,85,30.30,10.0,Calm,Calm,-,N/A,,Overcast,0,2013-01-07 08:53:00
1:53 AM,33.1,30.9,92,30.31,10.0,SE,4.6,-,N/A,,Overcast,130,2013-01-07 09:53:00
2:53 AM,34.0,30.9,89,30.32,9.0,Calm,Calm,-,0.00,Rain,Light Rain,0,2013-01-07 10:53:00
3:53 AM,34.0,30.9,89,30.32,10.0,Calm,Calm,-,0.00,,Overcast,0,2013-01-07 11:53:00
4:53 AM,34.0,32.0,92,30.32,10.0,Calm,Calm,-,N/A,,Overcast,0,2013-01-07 12:53:00
5:53 AM,34.0,30.9,89,30.33,10.0,Calm,Calm,-,N/A,,Overcast,0,2013-01-07 13:53:00
6:53 AM,34.0,30.9,89,30.31,10.0,North,3.5,-,N/A,,Overcast,360,2013-01-07 14:53:00
7:53 AM,34.0,32.0,92,30.32,10.0,NE,3.5,-,N/A,,Overcast,50,2013-01-07 15:53:00
8:03 AM,33.8,32.0,93,30.25,10.0,NE,3.5,-,N/A,,Overcast,40,2013-01-07 16:03:00
8:15 AM,33.8,32.0,93,30.25,6.0,Calm,Calm,-,N/A,,Overcast,0,2013-01-07 16:15:00
8:33 AM,33.8,32.0,93,30.26,2.0,Calm,Calm,-,0.01,,Overcast,0,2013-01-07 16:33:00
8:53 AM,34.0,32.0,92,30.34,2.0,Calm,Calm,-,0.01,,Overcast,0,2013-01-07 16:53:00
9:11 AM,33.8,33.8,100,30.26,4.0,Calm,Calm,-,0.00,,Overcast,0,2013-01-07 17:11:00
9:53 AM,35.1,33.1,92,30.35,10.0,Calm,Calm,-,0.00,,Overcast,0,2013-01-07 17:53:00
10:53 AM,37.0,33.1,86,30.37,6.0,Calm,Calm,-,N/A,,Overcast,0,2013-01-07 18:53:00
11:00 AM,35.6,33.8,93,30.30,5.0,Calm,Calm,-,N/A,,Overcast,0,2013-01-07 19:00:00
11:53 AM,37.0,33.1,86,30.36,5.0,Calm,Calm,-,0.01,Rain,Light Rain,0,2013-01-07 19:53:00
12:04 PM,37.4,33.8,87,30.29,4.0,Calm,Calm,-,0.00,Rain,Light Rain,0,2013-01-07 20:04:00
12:13 PM,35.6,33.8,93,30.28,4.0,Calm,Calm,-,0.00,Rain,Light Rain,0,2013-01-07 20:13:00
12:53 PM,37.0,34.0,89,30.35,6.0,Calm,Calm,-,0.01,Rain,Light Rain,0,2013-01-07 20:53:00
1:01 PM,37.4,33.8,87,30.28,5.0,Calm,Calm,-,0.00,Rain,Light Rain,0,2013-01-07 21:01:00
1:09 PM,37.4,33.8,87,30.28,8.0,Calm,Calm,-,0.01,Rain,Light Rain,0,2013-01-07 21:09:00
1:18 PM,37.4,33.8,87,30.28,9.0,Calm,Calm,-,0.01,Rain,Light Rain,0,2013-01-07 21:18:00
1:53 PM,37.9,34.0,86,30.35,10.0,Calm,Calm,-,0.01,,Overcast,0,2013-01-07 21:53:00
2:37 PM,37.4,35.6,93,30.27,10.0,West,4.6,-,N/A,,Overcast,260,2013-01-07 22:37:00
2:51 PM,37.4,35.6,93,30.27,10.0,Calm,Calm,-,N/A,,Overcast,0,2013-01-07 22:51:00
4:24 PM,39.2,35.6,87,30.28,10.0,North,4.6,-,N/A,,Overcast,360,2013-01-08 00:24:00
4:53 PM,37.9,35.1,89,30.35,10.0,NNE,4.6,-,N/A,,Overcast,30,2013-01-08 00:53:00
5:03 PM,37.4,35.6,93,30.28,10.0,NNE,4.6,-,N/A,,Overcast,30,2013-01-08 01:03:00
5:39 PM,37.4,35.6,93,30.29,10.0,NNW,3.5,-,N/A,,Overcast,330,2013-01-08 01:39:00
5:53 PM,37.0,35.1,93,30.35,10.0,Calm,Calm,-,N/A,,Overcast,0,2013-01-08 01:53:00
6:12 PM,37.4,35.6,93,30.27,10.0,NE,3.5,-,N/A,,Overcast,40,2013-01-08 02:12:00
6:42 PM,37.4,35.6,93,30.28,10.0,Calm,Calm,-,N/A,,Overcast,0,2013-01-08 02:42:00
6:53 PM,37.0,35.1,93,30.34,10.0,NE,4.6,-,N/A,,Overcast,50,2013-01-08 02:53:00
7:53 PM,37.0,35.1,93,30.36,10.0,NNE,4.6,-,N/A,,Overcast,20,2013-01-08 03:53:00
8:53 PM,37.0,35.1,93,30.36,10.0,Calm,Calm,-,N/A,,Overcast,0,2013-01-08 04:53:00
9:53 PM,35.1,34.0,96,30.37,9.0,Calm,Calm,-,N/A,,Overcast,0,2013-01-08 05:53:00
10:49 PM,35.6,35.6,100,30.30,6.0,Calm,Calm,-,N/A,,Overcast,0,2013-01-08 06:49:00
10:53 PM,36.0,35.1,97,30.37,6.0,Calm,Calm,-,N/A,,Overcast,0,2013-01-08 06:53:00
11:22 PM,35.6,35.6,100,30.29,1.8,Calm,Calm,-,N/A,,Overcast,0,2013-01-08 07:22:00
11:46 PM,35.6,35.6,100,30.30,0.5,Calm,Calm,-,N/A,Fog,Fog,0,2013-01-08 07:46:00
11:53 PM,36.0,34.0,93,30.37,0.5,Calm,Calm,-,N/A,Fog,Fog,0,2013-01-08 07:53:00